sensor_id;sensor_type;location;lat;lon;timestamp;P1;durP1;ratioP1;P2;durP2;ratioP2
81701;SDS011;71115;52.150;4.510;2023-08-06T00:00:47;2.67;;;1.10;;
81701;SDS011;71115;52.150;4.510;2023-08-06T00:03:13;2.78;;;1.30;;
81701;SDS011;71115;52.150;4.510;2023-08-06T00:05:42;2.45;;;1.05;;
81701;SDS011;71115;52.150;4.510;2023-08-06T00:08:08;3.10;;;1.60;;
81701;SDS011;71115;52.150;4.510;2023-08-06T00:10:34;3.15;;;0.95;;
81701;SDS011;71115;52.150;4.510;2023-08-06T00:13:00;3.65;;;1.00;;
81701;SDS011;71115;52.150;4.510;2023-08-06T00:15:26;3.80;;;1.20;;
81701;SDS011;71115;52.150;4.510;2023-08-06T00:17:52;6.03;;;1.50;;
81701;SDS011;71115;52.150;4.510;2023-08-06T00:20:18;7.78;;;1.30;;
81701;SDS011;71115;52.150;4.510;2023-08-06T00:22:45;4.78;;;1.10;;
81701;SDS011;71115;52.150;4.510;2023-08-06T00:25:11;3.17;;;1.30;;
81701;SDS011;71115;52.150;4.510;2023-08-06T00:27:37;2.70;;;1.20;;
81701;SDS011;71115;52.150;4.510;2023-08-06T00:30:03;4.32;;;1.30;;
81701;SDS011;71115;52.150;4.510;2023-08-06T00:32:29;3.60;;;1.23;;
81701;SDS011;71115;52.150;4.510;2023-08-06T00:34:55;2.40;;;0.93;;
81701;SDS011;71115;52.150;4.510;2023-08-06T00:37:21;2.75;;;1.15;;
81701;SDS011;71115;52.150;4.510;2023-08-06T00:39:47;2.58;;;1.15;;
81701;SDS011;71115;52.150;4.510;2023-08-06T00:42:13;3.22;;;1.10;;
81701;SDS011;71115;52.150;4.510;2023-08-06T00:44:41;5.57;;;1.00;;
81701;SDS011;71115;52.150;4.510;2023-08-06T00:47:07;2.97;;;1.23;;
81701;SDS011;71115;52.150;4.510;2023-08-06T00:49:34;2.90;;;1.05;;
81701;SDS011;71115;52.150;4.510;2023-08-06T00:52:01;2.47;;;1.02;;
81701;SDS011;71115;52.150;4.510;2023-08-06T00:54:27;2.92;;;1.13;;
81701;SDS011;71115;52.150;4.510;2023-08-06T00:56:53;3.58;;;1.08;;
81701;SDS011;71115;52.150;4.510;2023-08-06T00:59:19;6.82;;;0.95;;
81701;SDS011;71115;52.150;4.510;2023-08-06T01:01:45;2.67;;;1.13;;
81701;SDS011;71115;52.150;4.510;2023-08-06T01:04:11;3.72;;;1.50;;
81701;SDS011;71115;52.150;4.510;2023-08-06T01:07:12;1.92;;;0.82;;
81701;SDS011;71115;52.150;4.510;2023-08-06T01:12:03;1.85;;;0.80;;
81701;SDS011;71115;52.150;4.510;2023-08-06T01:15:15;4.50;;;1.13;;
81701;SDS011;71115;52.150;4.510;2023-08-06T01:17:20;4.50;;;1.25;;
81701;SDS011;71115;52.150;4.510;2023-08-06T01:19:46;4.88;;;1.00;;
81701;SDS011;71115;52.150;4.510;2023-08-06T01:22:12;1.85;;;0.90;;
81701;SDS011;71115;52.150;4.510;2023-08-06T01:24:38;2.60;;;1.00;;
81701;SDS011;71115;52.150;4.510;2023-08-06T01:27:15;1.90;;;0.85;;
81701;SDS011;71115;52.150;4.510;2023-08-06T01:29:43;5.75;;;1.10;;
81701;SDS011;71115;52.150;4.510;2023-08-06T01:32:10;3.08;;;0.95;;
81701;SDS011;71115;52.150;4.510;2023-08-06T01:34:38;2.45;;;1.15;;
81701;SDS011;71115;52.150;4.510;2023-08-06T01:37:05;4.82;;;1.08;;
81701;SDS011;71115;52.150;4.510;2023-08-06T01:39:33;3.13;;;1.20;;
81701;SDS011;71115;52.150;4.510;2023-08-06T01:41:59;3.65;;;1.20;;
81701;SDS011;71115;52.150;4.510;2023-08-06T01:44:25;3.55;;;0.88;;
81701;SDS011;71115;52.150;4.510;2023-08-06T01:46:51;2.80;;;1.02;;
81701;SDS011;71115;52.150;4.510;2023-08-06T01:49:17;5.68;;;1.80;;
81701;SDS011;71115;52.150;4.510;2023-08-06T01:51:43;3.40;;;0.93;;
81701;SDS011;71115;52.150;4.510;2023-08-06T01:54:09;3.40;;;1.25;;
81701;SDS011;71115;52.150;4.510;2023-08-06T01:56:35;2.30;;;0.90;;
81701;SDS011;71115;52.150;4.510;2023-08-06T01:59:01;6.28;;;1.15;;
81701;SDS011;71115;52.150;4.510;2023-08-06T02:01:27;3.22;;;1.30;;
81701;SDS011;71115;52.150;4.510;2023-08-06T02:03:53;2.60;;;0.90;;
81701;SDS011;71115;52.150;4.510;2023-08-06T02:06:20;2.40;;;1.00;;
81701;SDS011;71115;52.150;4.510;2023-08-06T02:08:46;2.85;;;1.20;;
81701;SDS011;71115;52.150;4.510;2023-08-06T02:11:12;4.47;;;1.00;;
81701;SDS011;71115;52.150;4.510;2023-08-06T02:13:38;2.22;;;1.08;;
81701;SDS011;71115;52.150;4.510;2023-08-06T02:16:06;6.72;;;1.30;;
81701;SDS011;71115;52.150;4.510;2023-08-06T02:18:33;3.13;;;1.15;;
81701;SDS011;71115;52.150;4.510;2023-08-06T02:20:59;3.45;;;1.15;;
81701;SDS011;71115;52.150;4.510;2023-08-06T02:26:04;3.13;;;1.00;;
81701;SDS011;71115;52.150;4.510;2023-08-06T02:28:30;2.47;;;1.00;;
81701;SDS011;71115;52.150;4.510;2023-08-06T02:33:22;2.55;;;1.00;;
81701;SDS011;71115;52.150;4.510;2023-08-06T02:35:48;4.03;;;1.15;;
81701;SDS011;71115;52.150;4.510;2023-08-06T02:38:14;4.00;;;1.08;;
81701;SDS011;71115;52.150;4.510;2023-08-06T02:40:44;3.45;;;1.23;;
81701;SDS011;71115;52.150;4.510;2023-08-06T02:43:13;2.72;;;0.90;;
81701;SDS011;71115;52.150;4.510;2023-08-06T02:48:05;4.72;;;1.00;;
81701;SDS011;71115;52.150;4.510;2023-08-06T02:50:37;2.92;;;1.10;;
81701;SDS011;71115;52.150;4.510;2023-08-06T02:53:03;4.05;;;1.15;;
81701;SDS011;71115;52.150;4.510;2023-08-06T02:55:29;2.83;;;0.90;;
81701;SDS011;71115;52.150;4.510;2023-08-06T02:57:55;2.35;;;1.02;;
81701;SDS011;71115;52.150;4.510;2023-08-06T03:00:21;3.13;;;1.02;;
81701;SDS011;71115;52.150;4.510;2023-08-06T03:02:47;3.45;;;0.90;;
81701;SDS011;71115;52.150;4.510;2023-08-06T03:05:13;3.97;;;0.90;;
81701;SDS011;71115;52.150;4.510;2023-08-06T03:07:39;3.00;;;1.10;;
81701;SDS011;71115;52.150;4.510;2023-08-06T03:10:05;2.75;;;1.23;;
81701;SDS011;71115;52.150;4.510;2023-08-06T03:12:31;2.42;;;1.00;;
81701;SDS011;71115;52.150;4.510;2023-08-06T03:14:57;1.67;;;0.90;;
81701;SDS011;71115;52.150;4.510;2023-08-06T03:17:26;3.38;;;0.95;;
81701;SDS011;71115;52.150;4.510;2023-08-06T03:19:52;1.50;;;0.80;;
81701;SDS011;71115;52.150;4.510;2023-08-06T03:22:18;2.58;;;1.05;;
81701;SDS011;71115;52.150;4.510;2023-08-06T03:24:44;2.40;;;1.00;;
81701;SDS011;71115;52.150;4.510;2023-08-06T03:27:10;3.13;;;1.20;;
81701;SDS011;71115;52.150;4.510;2023-08-06T03:29:36;2.35;;;0.88;;
81701;SDS011;71115;52.150;4.510;2023-08-06T03:32:02;2.80;;;1.00;;
81701;SDS011;71115;52.150;4.510;2023-08-06T03:34:28;1.92;;;0.77;;
81701;SDS011;71115;52.150;4.510;2023-08-06T03:36:54;1.65;;;0.77;;
81701;SDS011;71115;52.150;4.510;2023-08-06T03:39:20;2.25;;;0.90;;
81701;SDS011;71115;52.150;4.510;2023-08-06T03:41:46;1.98;;;0.90;;
81701;SDS011;71115;52.150;4.510;2023-08-06T03:44:12;2.17;;;0.88;;
81701;SDS011;71115;52.150;4.510;2023-08-06T03:46:38;3.70;;;1.13;;
81701;SDS011;71115;52.150;4.510;2023-08-06T03:49:04;2.30;;;0.90;;
81701;SDS011;71115;52.150;4.510;2023-08-06T03:51:30;2.30;;;1.08;;
81701;SDS011;71115;52.150;4.510;2023-08-06T03:53:56;5.80;;;0.85;;
81701;SDS011;71115;52.150;4.510;2023-08-06T03:56:22;2.45;;;0.82;;
81701;SDS011;71115;52.150;4.510;2023-08-06T03:58:48;2.72;;;1.13;;
81701;SDS011;71115;52.150;4.510;2023-08-06T04:01:14;5.30;;;1.00;;
81701;SDS011;71115;52.150;4.510;2023-08-06T04:03:40;3.17;;;1.27;;
81701;SDS011;71115;52.150;4.510;2023-08-06T04:06:06;2.97;;;0.90;;
81701;SDS011;71115;52.150;4.510;2023-08-06T04:08:32;2.03;;;0.95;;
81701;SDS011;71115;52.150;4.510;2023-08-06T04:10:59;2.33;;;0.93;;
81701;SDS011;71115;52.150;4.510;2023-08-06T04:13:24;2.13;;;1.00;;
81701;SDS011;71115;52.150;4.510;2023-08-06T04:15:51;1.23;;;0.70;;
81701;SDS011;71115;52.150;4.510;2023-08-06T04:18:16;3.63;;;0.90;;
81701;SDS011;71115;52.150;4.510;2023-08-06T04:20:43;1.88;;;0.75;;
81701;SDS011;71115;52.150;4.510;2023-08-06T04:23:10;2.33;;;1.10;;
81701;SDS011;71115;52.150;4.510;2023-08-06T04:25:36;2.53;;;1.00;;
81701;SDS011;71115;52.150;4.510;2023-08-06T04:28:02;2.28;;;0.63;;
81701;SDS011;71115;52.150;4.510;2023-08-06T04:30:28;2.05;;;0.82;;
81701;SDS011;71115;52.150;4.510;2023-08-06T04:32:54;2.35;;;1.02;;
81701;SDS011;71115;52.150;4.510;2023-08-06T04:35:22;2.65;;;0.73;;
81701;SDS011;71115;52.150;4.510;2023-08-06T04:37:48;2.10;;;1.00;;
81701;SDS011;71115;52.150;4.510;2023-08-06T04:40:14;2.88;;;0.98;;
81701;SDS011;71115;52.150;4.510;2023-08-06T04:42:41;2.22;;;0.90;;
81701;SDS011;71115;52.150;4.510;2023-08-06T04:45:07;1.88;;;0.85;;
81701;SDS011;71115;52.150;4.510;2023-08-06T04:47:33;2.22;;;1.00;;
81701;SDS011;71115;52.150;4.510;2023-08-06T04:49:59;5.90;;;0.95;;
81701;SDS011;71115;52.150;4.510;2023-08-06T04:52:25;3.72;;;1.00;;
81701;SDS011;71115;52.150;4.510;2023-08-06T04:54:53;2.78;;;0.85;;
81701;SDS011;71115;52.150;4.510;2023-08-06T04:59:45;3.38;;;0.80;;
81701;SDS011;71115;52.150;4.510;2023-08-06T05:02:11;2.85;;;0.95;;
81701;SDS011;71115;52.150;4.510;2023-08-06T05:04:37;2.95;;;0.93;;
81701;SDS011;71115;52.150;4.510;2023-08-06T05:07:03;1.88;;;0.85;;
81701;SDS011;71115;52.150;4.510;2023-08-06T05:11:55;2.50;;;0.65;;
81701;SDS011;71115;52.150;4.510;2023-08-06T05:14:21;2.20;;;0.90;;
81701;SDS011;71115;52.150;4.510;2023-08-06T05:16:47;1.90;;;0.70;;
81701;SDS011;71115;52.150;4.510;2023-08-06T05:19:13;3.50;;;1.20;;
81701;SDS011;71115;52.150;4.510;2023-08-06T05:21:39;3.53;;;0.98;;
81701;SDS011;71115;52.150;4.510;2023-08-06T05:24:05;1.88;;;0.77;;
81701;SDS011;71115;52.150;4.510;2023-08-06T05:26:31;3.42;;;0.90;;
81701;SDS011;71115;52.150;4.510;2023-08-06T05:28:57;2.15;;;0.80;;
81701;SDS011;71115;52.150;4.510;2023-08-06T05:31:23;1.45;;;0.60;;
81701;SDS011;71115;52.150;4.510;2023-08-06T05:33:49;2.28;;;0.93;;
81701;SDS011;71115;52.150;4.510;2023-08-06T05:36:15;3.63;;;1.05;;
81701;SDS011;71115;52.150;4.510;2023-08-06T05:38:42;1.75;;;0.88;;
81701;SDS011;71115;52.150;4.510;2023-08-06T05:41:08;3.22;;;0.80;;
81701;SDS011;71115;52.150;4.510;2023-08-06T05:43:34;3.45;;;1.10;;
81701;SDS011;71115;52.150;4.510;2023-08-06T05:46:00;2.88;;;0.95;;
81701;SDS011;71115;52.150;4.510;2023-08-06T05:48:26;2.20;;;0.93;;
81701;SDS011;71115;52.150;4.510;2023-08-06T05:50:53;2.03;;;0.70;;
81701;SDS011;71115;52.150;4.510;2023-08-06T05:53:19;3.70;;;1.00;;
81701;SDS011;71115;52.150;4.510;2023-08-06T05:55:45;1.90;;;0.88;;
81701;SDS011;71115;52.150;4.510;2023-08-06T05:58:11;3.03;;;1.08;;
81701;SDS011;71115;52.150;4.510;2023-08-06T06:00:37;3.13;;;0.73;;
81701;SDS011;71115;52.150;4.510;2023-08-06T06:03:03;2.58;;;0.90;;
81701;SDS011;71115;52.150;4.510;2023-08-06T06:05:29;2.20;;;0.82;;
81701;SDS011;71115;52.150;4.510;2023-08-06T06:07:55;3.65;;;1.10;;
81701;SDS011;71115;52.150;4.510;2023-08-06T06:10:21;3.42;;;0.82;;
81701;SDS011;71115;52.150;4.510;2023-08-06T06:12:47;2.95;;;1.20;;
81701;SDS011;71115;52.150;4.510;2023-08-06T06:15:13;2.00;;;0.82;;
81701;SDS011;71115;52.150;4.510;2023-08-06T06:17:39;3.05;;;0.95;;
81701;SDS011;71115;52.150;4.510;2023-08-06T06:20:05;2.90;;;1.10;;
81701;SDS011;71115;52.150;4.510;2023-08-06T06:24:57;2.78;;;1.10;;
81701;SDS011;71115;52.150;4.510;2023-08-06T06:27:23;1.52;;;0.75;;
81701;SDS011;71115;52.150;4.510;2023-08-06T06:29:49;2.50;;;0.90;;
81701;SDS011;71115;52.150;4.510;2023-08-06T06:32:17;3.15;;;0.90;;
81701;SDS011;71115;52.150;4.510;2023-08-06T06:34:43;2.17;;;1.00;;
81701;SDS011;71115;52.150;4.510;2023-08-06T06:37:09;3.28;;;1.00;;
81701;SDS011;71115;52.150;4.510;2023-08-06T06:39:35;2.55;;;0.90;;
81701;SDS011;71115;52.150;4.510;2023-08-06T06:42:01;2.55;;;1.00;;
81701;SDS011;71115;52.150;4.510;2023-08-06T06:44:27;2.15;;;1.00;;
81701;SDS011;71115;52.150;4.510;2023-08-06T06:46:53;2.15;;;0.88;;
81701;SDS011;71115;52.150;4.510;2023-08-06T06:49:19;3.25;;;1.20;;
81701;SDS011;71115;52.150;4.510;2023-08-06T06:51:45;3.42;;;0.90;;
81701;SDS011;71115;52.150;4.510;2023-08-06T06:54:11;2.85;;;0.80;;
81701;SDS011;71115;52.150;4.510;2023-08-06T06:56:37;2.67;;;0.95;;
81701;SDS011;71115;52.150;4.510;2023-08-06T06:59:03;3.25;;;1.15;;
81701;SDS011;71115;52.150;4.510;2023-08-06T07:01:29;2.80;;;0.98;;
81701;SDS011;71115;52.150;4.510;2023-08-06T07:03:55;1.90;;;0.80;;
81701;SDS011;71115;52.150;4.510;2023-08-06T07:06:22;2.75;;;1.08;;
81701;SDS011;71115;52.150;4.510;2023-08-06T07:08:48;2.65;;;0.80;;
81701;SDS011;71115;52.150;4.510;2023-08-06T07:11:14;2.15;;;1.02;;
81701;SDS011;71115;52.150;4.510;2023-08-06T07:13:40;3.15;;;0.95;;
81701;SDS011;71115;52.150;4.510;2023-08-06T07:16:06;3.15;;;0.77;;
81701;SDS011;71115;52.150;4.510;2023-08-06T07:18:32;2.38;;;0.88;;
81701;SDS011;71115;52.150;4.510;2023-08-06T07:20:58;1.77;;;0.70;;
81701;SDS011;71115;52.150;4.510;2023-08-06T07:23:25;5.50;;;1.27;;
81701;SDS011;71115;52.150;4.510;2023-08-06T07:25:51;2.15;;;1.00;;
81701;SDS011;71115;52.150;4.510;2023-08-06T07:30:44;2.50;;;1.23;;
81701;SDS011;71115;52.150;4.510;2023-08-06T07:33:10;2.85;;;0.98;;
81701;SDS011;71115;52.150;4.510;2023-08-06T07:35:37;3.78;;;0.98;;
81701;SDS011;71115;52.150;4.510;2023-08-06T07:38:03;3.60;;;0.98;;
81701;SDS011;71115;52.150;4.510;2023-08-06T07:40:29;3.42;;;1.05;;
81701;SDS011;71115;52.150;4.510;2023-08-06T07:42:55;2.63;;;1.20;;
81701;SDS011;71115;52.150;4.510;2023-08-06T07:45:21;5.22;;;1.33;;
81701;SDS011;71115;52.150;4.510;2023-08-06T07:47:47;6.78;;;1.75;;
81701;SDS011;71115;52.150;4.510;2023-08-06T07:50:13;5.40;;;1.48;;
81701;SDS011;71115;52.150;4.510;2023-08-06T07:55:06;16.55;;;3.78;;
81701;SDS011;71115;52.150;4.510;2023-08-06T07:57:33;10.80;;;2.55;;
81701;SDS011;71115;52.150;4.510;2023-08-06T08:00:02;12.48;;;2.55;;
81701;SDS011;71115;52.150;4.510;2023-08-06T08:02:28;10.23;;;2.30;;
81701;SDS011;71115;52.150;4.510;2023-08-06T08:04:55;11.57;;;2.88;;
81701;SDS011;71115;52.150;4.510;2023-08-06T08:07:21;10.20;;;2.17;;
81701;SDS011;71115;52.150;4.510;2023-08-06T08:09:47;5.65;;;2.30;;
81701;SDS011;71115;52.150;4.510;2023-08-06T08:12:13;13.85;;;3.10;;
81701;SDS011;71115;52.150;4.510;2023-08-06T08:14:39;9.13;;;2.42;;
81701;SDS011;71115;52.150;4.510;2023-08-06T08:17:05;13.75;;;4.60;;
81701;SDS011;71115;52.150;4.510;2023-08-06T08:19:32;10.05;;;2.85;;
81701;SDS011;71115;52.150;4.510;2023-08-06T08:21:58;7.95;;;2.58;;
81701;SDS011;71115;52.150;4.510;2023-08-06T08:24:24;12.85;;;3.25;;
81701;SDS011;71115;52.150;4.510;2023-08-06T08:29:16;11.00;;;2.47;;
81701;SDS011;71115;52.150;4.510;2023-08-06T08:31:42;14.43;;;3.22;;
81701;SDS011;71115;52.150;4.510;2023-08-06T08:34:09;10.50;;;2.83;;
81701;SDS011;71115;52.150;4.510;2023-08-06T08:36:35;7.10;;;2.72;;
81701;SDS011;71115;52.150;4.510;2023-08-06T08:39:01;8.32;;;2.60;;
81701;SDS011;71115;52.150;4.510;2023-08-06T08:41:28;9.43;;;2.95;;
81701;SDS011;71115;52.150;4.510;2023-08-06T08:43:55;7.38;;;1.77;;
81701;SDS011;71115;52.150;4.510;2023-08-06T08:46:21;8.00;;;2.60;;
81701;SDS011;71115;52.150;4.510;2023-08-06T08:48:48;6.50;;;1.98;;
81701;SDS011;71115;52.150;4.510;2023-08-06T08:51:14;14.85;;;2.35;;
81701;SDS011;71115;52.150;4.510;2023-08-06T08:53:40;8.02;;;2.65;;
81701;SDS011;71115;52.150;4.510;2023-08-06T08:56:08;9.50;;;2.22;;
81701;SDS011;71115;52.150;4.510;2023-08-06T08:58:34;7.65;;;2.30;;
81701;SDS011;71115;52.150;4.510;2023-08-06T09:01:00;8.10;;;1.90;;
81701;SDS011;71115;52.150;4.510;2023-08-06T09:03:27;5.60;;;1.90;;
81701;SDS011;71115;52.150;4.510;2023-08-06T09:05:53;8.13;;;3.13;;
81701;SDS011;71115;52.150;4.510;2023-08-06T09:08:21;6.97;;;1.85;;
81701;SDS011;71115;52.150;4.510;2023-08-06T09:10:49;6.38;;;1.50;;
81701;SDS011;71115;52.150;4.510;2023-08-06T09:13:15;9.77;;;1.70;;
81701;SDS011;71115;52.150;4.510;2023-08-06T09:15:42;5.00;;;1.83;;
81701;SDS011;71115;52.150;4.510;2023-08-06T09:18:09;6.55;;;1.45;;
81701;SDS011;71115;52.150;4.510;2023-08-06T09:20:36;8.65;;;1.75;;
81701;SDS011;71115;52.150;4.510;2023-08-06T09:23:09;5.22;;;1.60;;
81701;SDS011;71115;52.150;4.510;2023-08-06T09:28:01;5.22;;;1.55;;
81701;SDS011;71115;52.150;4.510;2023-08-06T09:30:29;4.53;;;1.42;;
81701;SDS011;71115;52.150;4.510;2023-08-06T09:32:56;5.43;;;1.48;;
81701;SDS011;71115;52.150;4.510;2023-08-06T09:35:22;5.25;;;1.50;;
81701;SDS011;71115;52.150;4.510;2023-08-06T09:37:48;5.95;;;1.88;;
81701;SDS011;71115;52.150;4.510;2023-08-06T09:42:52;3.78;;;1.30;;
81701;SDS011;71115;52.150;4.510;2023-08-06T09:45:18;3.55;;;1.10;;
81701;SDS011;71115;52.150;4.510;2023-08-06T09:47:44;3.53;;;1.20;;
81701;SDS011;71115;52.150;4.510;2023-08-06T09:52:36;3.75;;;1.27;;
81701;SDS011;71115;52.150;4.510;2023-08-06T09:55:03;5.32;;;1.75;;
81701;SDS011;71115;52.150;4.510;2023-08-06T09:57:29;4.75;;;1.10;;
81701;SDS011;71115;52.150;4.510;2023-08-06T09:59:56;3.15;;;0.73;;
81701;SDS011;71115;52.150;4.510;2023-08-06T10:02:22;5.93;;;1.33;;
81701;SDS011;71115;52.150;4.510;2023-08-06T10:04:50;2.55;;;0.98;;
81701;SDS011;71115;52.150;4.510;2023-08-06T10:07:16;3.55;;;1.40;;
81701;SDS011;71115;52.150;4.510;2023-08-06T10:09:43;2.72;;;1.20;;
81701;SDS011;71115;52.150;4.510;2023-08-06T10:12:09;5.35;;;1.20;;
81701;SDS011;71115;52.150;4.510;2023-08-06T10:14:37;5.10;;;1.60;;
81701;SDS011;71115;52.150;4.510;2023-08-06T10:17:03;2.28;;;1.00;;
81701;SDS011;71115;52.150;4.510;2023-08-06T10:19:29;3.67;;;1.23;;
81701;SDS011;71115;52.150;4.510;2023-08-06T10:22:09;6.15;;;1.42;;
81701;SDS011;71115;52.150;4.510;2023-08-06T10:29:40;4.60;;;1.35;;
81701;SDS011;71115;52.150;4.510;2023-08-06T10:32:06;2.53;;;1.00;;
81701;SDS011;71115;52.150;4.510;2023-08-06T10:37:17;4.13;;;1.10;;
81701;SDS011;71115;52.150;4.510;2023-08-06T10:39:48;3.95;;;1.00;;
81701;SDS011;71115;52.150;4.510;2023-08-06T10:42:22;4.07;;;1.10;;
81701;SDS011;71115;52.150;4.510;2023-08-06T10:47:25;2.95;;;1.17;;
81701;SDS011;71115;52.150;4.510;2023-08-06T10:49:53;5.60;;;1.15;;
81701;SDS011;71115;52.150;4.510;2023-08-06T10:52:19;3.70;;;1.25;;
81701;SDS011;71115;52.150;4.510;2023-08-06T10:54:45;2.58;;;0.93;;
81701;SDS011;71115;52.150;4.510;2023-08-06T10:57:11;2.88;;;0.90;;
81701;SDS011;71115;52.150;4.510;2023-08-06T10:59:37;2.80;;;0.90;;
81701;SDS011;71115;52.150;4.510;2023-08-06T11:02:03;3.95;;;1.13;;
81701;SDS011;71115;52.150;4.510;2023-08-06T11:04:32;5.13;;;1.33;;
81701;SDS011;71115;52.150;4.510;2023-08-06T11:06:58;3.88;;;1.30;;
81701;SDS011;71115;52.150;4.510;2023-08-06T11:09:24;3.47;;;1.13;;
81701;SDS011;71115;52.150;4.510;2023-08-06T11:11:51;3.50;;;1.10;;
81701;SDS011;71115;52.150;4.510;2023-08-06T11:14:17;2.45;;;1.00;;
81701;SDS011;71115;52.150;4.510;2023-08-06T11:16:43;2.97;;;1.05;;
81701;SDS011;71115;52.150;4.510;2023-08-06T11:19:09;3.05;;;1.10;;
81701;SDS011;71115;52.150;4.510;2023-08-06T11:21:35;4.53;;;1.00;;
81701;SDS011;71115;52.150;4.510;2023-08-06T11:24:01;11.73;;;1.15;;
81701;SDS011;71115;52.150;4.510;2023-08-06T11:26:27;27.98;;;4.25;;
81701;SDS011;71115;52.150;4.510;2023-08-06T11:28:53;25.50;;;6.50;;
81701;SDS011;71115;52.150;4.510;2023-08-06T11:31:23;22.10;;;5.28;;
81701;SDS011;71115;52.150;4.510;2023-08-06T11:33:55;13.05;;;2.55;;
81701;SDS011;71115;52.150;4.510;2023-08-06T11:36:30;4.68;;;1.42;;
81701;SDS011;71115;52.150;4.510;2023-08-06T11:38:57;4.32;;;1.48;;
81701;SDS011;71115;52.150;4.510;2023-08-06T11:41:23;3.78;;;0.77;;
81701;SDS011;71115;52.150;4.510;2023-08-06T11:43:50;3.08;;;0.80;;
81701;SDS011;71115;52.150;4.510;2023-08-06T11:48:54;5.93;;;0.77;;
81701;SDS011;71115;52.150;4.510;2023-08-06T11:51:24;4.28;;;1.00;;
81701;SDS011;71115;52.150;4.510;2023-08-06T11:53:59;4.68;;;0.98;;
81701;SDS011;71115;52.150;4.510;2023-08-06T11:56:26;1.98;;;0.70;;
81701;SDS011;71115;52.150;4.510;2023-08-06T11:58:53;2.97;;;1.05;;
81701;SDS011;71115;52.150;4.510;2023-08-06T12:01:19;1.70;;;0.63;;
81701;SDS011;71115;52.150;4.510;2023-08-06T12:03:46;3.13;;;0.70;;
81701;SDS011;71115;52.150;4.510;2023-08-06T12:06:12;2.53;;;0.70;;
81701;SDS011;71115;52.150;4.510;2023-08-06T12:08:38;1.80;;;0.70;;
81701;SDS011;71115;52.150;4.510;2023-08-06T12:11:04;2.47;;;0.70;;
81701;SDS011;71115;52.150;4.510;2023-08-06T12:13:30;2.53;;;0.80;;
81701;SDS011;71115;52.150;4.510;2023-08-06T12:15:56;1.13;;;0.40;;
81701;SDS011;71115;52.150;4.510;2023-08-06T12:18:22;2.25;;;0.60;;
81701;SDS011;71115;52.150;4.510;2023-08-06T12:23:15;2.83;;;0.75;;
81701;SDS011;71115;52.150;4.510;2023-08-06T12:28:07;2.03;;;0.60;;
81701;SDS011;71115;52.150;4.510;2023-08-06T12:30:34;2.15;;;0.70;;
81701;SDS011;71115;52.150;4.510;2023-08-06T12:33:00;4.28;;;0.88;;
81701;SDS011;71115;52.150;4.510;2023-08-06T12:37:52;1.38;;;0.50;;
81701;SDS011;71115;52.150;4.510;2023-08-06T12:40:22;3.33;;;0.70;;
81701;SDS011;71115;52.150;4.510;2023-08-06T12:42:50;3.22;;;0.80;;
81701;SDS011;71115;52.150;4.510;2023-08-06T12:45:16;1.77;;;0.50;;
81701;SDS011;71115;52.150;4.510;2023-08-06T12:47:42;3.03;;;0.70;;
81701;SDS011;71115;52.150;4.510;2023-08-06T12:50:08;2.05;;;0.60;;
81701;SDS011;71115;52.150;4.510;2023-08-06T12:55:00;3.50;;;0.63;;
81701;SDS011;71115;52.150;4.510;2023-08-06T12:57:26;3.47;;;0.65;;
81701;SDS011;71115;52.150;4.510;2023-08-06T12:59:54;2.70;;;0.80;;
81701;SDS011;71115;52.150;4.510;2023-08-06T13:02:20;2.80;;;0.80;;
81701;SDS011;71115;52.150;4.510;2023-08-06T13:04:46;1.88;;;0.73;;
81701;SDS011;71115;52.150;4.510;2023-08-06T13:07:12;6.07;;;1.02;;
81701;SDS011;71115;52.150;4.510;2023-08-06T13:09:38;2.92;;;0.75;;
81701;SDS011;71115;52.150;4.510;2023-08-06T13:12:04;3.20;;;0.70;;
81701;SDS011;71115;52.150;4.510;2023-08-06T13:14:31;2.85;;;0.60;;
81701;SDS011;71115;52.150;4.510;2023-08-06T13:16:57;3.63;;;0.90;;
81701;SDS011;71115;52.150;4.510;2023-08-06T13:19:23;3.03;;;0.90;;
81701;SDS011;71115;52.150;4.510;2023-08-06T13:24:15;2.88;;;0.90;;
81701;SDS011;71115;52.150;4.510;2023-08-06T13:26:41;2.60;;;0.80;;
81701;SDS011;71115;52.150;4.510;2023-08-06T13:29:07;3.92;;;0.77;;
81701;SDS011;71115;52.150;4.510;2023-08-06T13:31:33;3.53;;;0.80;;
81701;SDS011;71115;52.150;4.510;2023-08-06T13:33:59;3.00;;;0.93;;
81701;SDS011;71115;52.150;4.510;2023-08-06T13:36:25;5.70;;;0.75;;
81701;SDS011;71115;52.150;4.510;2023-08-06T13:38:52;5.25;;;0.85;;
81701;SDS011;71115;52.150;4.510;2023-08-06T13:41:18;3.20;;;0.90;;
81701;SDS011;71115;52.150;4.510;2023-08-06T13:46:10;7.15;;;1.40;;
81701;SDS011;71115;52.150;4.510;2023-08-06T13:48:43;8.60;;;1.25;;
81701;SDS011;71115;52.150;4.510;2023-08-06T13:51:10;7.72;;;1.20;;
81701;SDS011;71115;52.150;4.510;2023-08-06T13:53:37;3.22;;;1.20;;
81701;SDS011;71115;52.150;4.510;2023-08-06T13:56:03;8.40;;;2.13;;
81701;SDS011;71115;52.150;4.510;2023-08-06T13:58:29;5.40;;;1.00;;
81701;SDS011;71115;52.150;4.510;2023-08-06T14:00:55;7.13;;;1.05;;
81701;SDS011;71115;52.150;4.510;2023-08-06T14:03:22;4.78;;;0.95;;
81701;SDS011;71115;52.150;4.510;2023-08-06T14:05:48;4.90;;;1.00;;
81701;SDS011;71115;52.150;4.510;2023-08-06T14:08:15;3.47;;;0.70;;
81701;SDS011;71115;52.150;4.510;2023-08-06T14:10:44;4.82;;;0.52;;
81701;SDS011;71115;52.150;4.510;2023-08-06T14:13:10;5.88;;;0.88;;
81701;SDS011;71115;52.150;4.510;2023-08-06T14:15:37;4.38;;;0.75;;
81701;SDS011;71115;52.150;4.510;2023-08-06T14:18:06;4.38;;;0.82;;
81701;SDS011;71115;52.150;4.510;2023-08-06T14:20:35;6.68;;;0.85;;
81701;SDS011;71115;52.150;4.510;2023-08-06T14:23:01;4.43;;;1.00;;
81701;SDS011;71115;52.150;4.510;2023-08-06T14:25:28;4.63;;;1.10;;
81701;SDS011;71115;52.150;4.510;2023-08-06T14:27:54;7.78;;;1.17;;
81701;SDS011;71115;52.150;4.510;2023-08-06T14:30:20;6.95;;;1.33;;
81701;SDS011;71115;52.150;4.510;2023-08-06T14:32:46;4.95;;;0.88;;
81701;SDS011;71115;52.150;4.510;2023-08-06T14:35:12;8.65;;;1.35;;
81701;SDS011;71115;52.150;4.510;2023-08-06T14:37:39;6.55;;;1.00;;
81701;SDS011;71115;52.150;4.510;2023-08-06T14:40:06;4.28;;;1.00;;
81701;SDS011;71115;52.150;4.510;2023-08-06T14:42:32;5.45;;;1.25;;
81701;SDS011;71115;52.150;4.510;2023-08-06T14:44:58;8.02;;;0.98;;
81701;SDS011;71115;52.150;4.510;2023-08-06T14:47:24;7.10;;;1.10;;
81701;SDS011;71115;52.150;4.510;2023-08-06T14:49:50;6.20;;;1.05;;
81701;SDS011;71115;52.150;4.510;2023-08-06T14:52:16;7.20;;;0.95;;
81701;SDS011;71115;52.150;4.510;2023-08-06T14:57:09;4.25;;;1.02;;
81701;SDS011;71115;52.150;4.510;2023-08-06T14:59:35;5.70;;;1.05;;
81701;SDS011;71115;52.150;4.510;2023-08-06T15:02:01;6.88;;;0.93;;
81701;SDS011;71115;52.150;4.510;2023-08-06T15:04:28;5.20;;;0.80;;
81701;SDS011;71115;52.150;4.510;2023-08-06T15:06:54;6.78;;;1.15;;
81701;SDS011;71115;52.150;4.510;2023-08-06T15:09:20;4.28;;;0.82;;
81701;SDS011;71115;52.150;4.510;2023-08-06T15:11:47;6.13;;;1.40;;
81701;SDS011;71115;52.150;4.510;2023-08-06T15:16:39;7.90;;;1.23;;
81701;SDS011;71115;52.150;4.510;2023-08-06T15:19:05;7.63;;;1.13;;
81701;SDS011;71115;52.150;4.510;2023-08-06T15:21:32;8.18;;;1.30;;
81701;SDS011;71115;52.150;4.510;2023-08-06T15:23:58;9.18;;;1.50;;
81701;SDS011;71115;52.150;4.510;2023-08-06T15:26:24;7.55;;;1.38;;
81701;SDS011;71115;52.150;4.510;2023-08-06T15:28:50;8.20;;;1.50;;
81701;SDS011;71115;52.150;4.510;2023-08-06T15:31:19;7.13;;;1.30;;
81701;SDS011;71115;52.150;4.510;2023-08-06T15:33:46;7.10;;;1.05;;
81701;SDS011;71115;52.150;4.510;2023-08-06T15:36:12;6.95;;;2.30;;
81701;SDS011;71115;52.150;4.510;2023-08-06T15:38:38;9.05;;;1.50;;
81701;SDS011;71115;52.150;4.510;2023-08-06T15:41:04;7.13;;;1.52;;
81701;SDS011;71115;52.150;4.510;2023-08-06T15:43:30;10.65;;;1.67;;
81701;SDS011;71115;52.150;4.510;2023-08-06T15:45:56;10.93;;;1.42;;
81701;SDS011;71115;52.150;4.510;2023-08-06T15:48:22;4.90;;;1.15;;